createdAt,value
2022-11-30T00:01:32.616Z,13.93
2022-11-30T00:04:00.424Z,14.97
2022-11-30T00:06:28.456Z,12.70
2022-11-30T00:08:58.055Z,14.00
2022-11-30T00:11:29.744Z,12.60
2022-11-30T00:13:57.652Z,14.60
2022-11-30T00:16:27.254Z,12.57
2022-11-30T00:18:55.231Z,13.33
2022-11-30T00:21:23.000Z,16.27
2022-11-30T00:23:50.831Z,16.50
2022-11-30T00:26:22.345Z,13.10
2022-11-30T00:28:51.853Z,13.60
2022-11-30T00:31:19.988Z,15.90
2022-11-30T00:33:48.344Z,16.30
2022-11-30T00:36:17.750Z,14.10
2022-11-30T00:38:46.401Z,14.10
2022-11-30T00:41:15.096Z,15.40
2022-11-30T00:43:43.575Z,12.20
2022-11-30T00:46:13.509Z,11.87
2022-11-30T00:48:42.193Z,12.00
2022-11-30T00:51:12.079Z,12.40
2022-11-30T00:53:40.945Z,10.90
2022-11-30T00:56:09.933Z,10.63
2022-11-30T00:58:37.781Z,12.80
2022-11-30T01:01:05.810Z,10.20
2022-11-30T01:03:35.436Z,11.37
2022-11-30T01:06:04.170Z,11.90
2022-11-30T01:08:32.143Z,13.83
2022-11-30T01:11:07.330Z,9.73
2022-11-30T01:13:35.207Z,10.77
2022-11-30T01:16:03.041Z,11.03
2022-11-30T01:18:30.868Z,10.10
2022-11-30T01:20:59.990Z,11.30
2022-11-30T01:23:27.742Z,10.90
2022-11-30T01:25:56.453Z,10.93
2022-11-30T01:28:24.314Z,11.43
2022-11-30T01:31:01.879Z,13.70
2022-11-30T01:33:29.739Z,11.50
2022-11-30T01:36:04.047Z,11.20
2022-11-30T01:38:35.462Z,11.17
2022-11-30T01:41:03.616Z,12.40
2022-11-30T01:43:42.870Z,12.13
2022-11-30T01:46:25.216Z,12.80
2022-11-30T01:49:00.604Z,12.60
2022-11-30T01:51:35.313Z,13.27
2022-11-30T01:54:05.435Z,15.57
2022-11-30T01:56:33.738Z,12.97
2022-11-30T01:59:01.678Z,14.13
2022-11-30T02:01:29.834Z,13.20
2022-11-30T02:04:03.324Z,14.33
2022-11-30T02:06:32.780Z,13.80
2022-11-30T02:09:03.495Z,15.60
2022-11-30T02:11:31.513Z,14.40
2022-11-30T02:14:17.320Z,14.73
2022-11-30T02:16:57.203Z,14.27
2022-11-30T02:19:57.717Z,13.63
2022-11-30T02:22:39.775Z,12.40
2022-11-30T02:25:19.165Z,12.33
2022-11-30T02:28:09.615Z,14.57
2022-11-30T02:30:43.985Z,13.20
2022-11-30T02:33:15.697Z,12.67
2022-11-30T02:35:54.366Z,12.13
2022-11-30T02:38:24.636Z,13.07
2022-11-30T02:40:52.731Z,14.20
2022-11-30T02:43:22.426Z,13.17
2022-11-30T02:46:00.388Z,12.13
2022-11-30T02:48:34.538Z,13.97
2022-11-30T02:51:05.195Z,13.73
2022-11-30T02:53:33.190Z,15.07
2022-11-30T02:56:01.019Z,14.67
2022-11-30T02:58:28.877Z,13.67
2022-11-30T03:00:58.043Z,15.80
2022-11-30T03:03:25.934Z,12.70
2022-11-30T03:05:53.747Z,14.37
2022-11-30T03:08:21.549Z,14.07
2022-11-30T03:10:49.315Z,14.60
2022-11-30T03:13:17.160Z,13.67
2022-11-30T03:15:45.050Z,15.47
2022-11-30T03:18:14.604Z,13.67
2022-11-30T03:20:42.601Z,13.87
2022-11-30T03:23:10.559Z,15.20
2022-11-30T03:25:38.352Z,13.93
2022-11-30T03:28:06.490Z,12.83
2022-11-30T03:30:34.274Z,14.40
2022-11-30T03:33:02.159Z,14.20
2022-11-30T03:35:31.526Z,15.93
2022-11-30T03:37:59.347Z,13.97
2022-11-30T03:40:27.191Z,13.43
2022-11-30T03:42:55.024Z,14.00
2022-11-30T03:45:22.915Z,14.10
2022-11-30T03:47:50.727Z,13.80
2022-11-30T03:50:24.327Z,13.47
2022-11-30T03:52:53.576Z,13.63
2022-11-30T03:55:21.462Z,13.83
2022-11-30T03:57:50.972Z,11.47
2022-11-30T04:00:20.224Z,12.07
2022-11-30T04:02:48.090Z,12.93
2022-11-30T04:05:16.011Z,11.73
2022-11-30T04:07:43.914Z,13.20
2022-11-30T04:10:13.626Z,11.93
2022-11-30T04:12:41.444Z,12.60
2022-11-30T04:15:10.453Z,12.97
2022-11-30T04:17:38.320Z,13.10
2022-11-30T04:20:07.751Z,14.53
2022-11-30T04:22:35.677Z,13.37
2022-11-30T04:25:06.790Z,14.03
2022-11-30T04:27:36.195Z,13.00
2022-11-30T04:30:04.610Z,12.30
2022-11-30T04:32:32.440Z,11.87
2022-11-30T04:35:00.282Z,12.70
2022-11-30T04:37:28.149Z,12.70
2022-11-30T04:39:55.955Z,11.20
2022-11-30T04:42:24.059Z,11.80
2022-11-30T04:44:53.275Z,11.10
2022-11-30T04:47:21.107Z,11.00
2022-11-30T04:49:49.005Z,9.70
2022-11-30T04:52:16.968Z,11.27
2022-11-30T04:54:45.191Z,11.10
2022-11-30T04:57:13.359Z,10.30
2022-11-30T04:59:41.154Z,11.07
2022-11-30T05:02:10.331Z,10.77
2022-11-30T05:04:38.148Z,10.87
2022-11-30T05:07:06.075Z,9.33
2022-11-30T05:09:34.244Z,8.63
2022-11-30T05:12:02.022Z,10.00
2022-11-30T05:14:30.797Z,9.03
2022-11-30T05:16:58.622Z,9.83
2022-11-30T05:19:27.724Z,9.23
2022-11-30T05:21:55.585Z,9.23
2022-11-30T05:24:23.447Z,9.70
2022-11-30T05:26:51.271Z,9.43
2022-11-30T05:29:19.063Z,9.90
2022-11-30T05:31:47.074Z,8.23
2022-11-30T05:34:14.984Z,8.40
2022-11-30T05:36:44.305Z,8.13
2022-11-30T05:39:12.211Z,8.37
2022-11-30T05:41:40.046Z,8.33
2022-11-30T05:44:07.831Z,9.07
2022-11-30T05:46:39.660Z,9.50
2022-11-30T05:49:08.857Z,9.60
2022-11-30T05:51:36.734Z,9.10
2022-11-30T05:54:06.107Z,9.77
2022-11-30T05:56:34.023Z,10.13
2022-11-30T05:59:01.873Z,10.87
2022-11-30T06:01:30.419Z,8.70
2022-11-30T06:03:58.760Z,9.47
2022-11-30T06:06:26.531Z,10.10
2022-11-30T06:08:55.545Z,9.77
2022-11-30T06:11:24.714Z,11.60
2022-11-30T06:13:52.644Z,10.00
2022-11-30T06:16:20.462Z,9.00
2022-11-30T06:18:48.291Z,9.47
2022-11-30T06:21:21.031Z,10.23
2022-11-30T06:23:51.895Z,10.03
2022-11-30T06:26:19.922Z,11.00
2022-11-30T06:28:49.251Z,9.27
2022-11-30T06:31:17.812Z,9.70
2022-11-30T06:33:45.638Z,9.90
2022-11-30T06:36:13.528Z,8.80
2022-11-30T06:38:41.377Z,9.23
2022-11-30T06:41:12.309Z,10.20
2022-11-30T06:43:40.924Z,10.57
2022-11-30T06:46:11.175Z,10.63
2022-11-30T06:48:39.093Z,10.27
2022-11-30T06:51:07.915Z,9.03
2022-11-30T06:53:36.262Z,10.30
2022-11-30T06:56:09.904Z,8.47
2022-11-30T06:58:39.417Z,9.57
2022-11-30T07:01:08.185Z,10.00
2022-11-30T07:03:37.515Z,11.30
2022-11-30T07:06:09.056Z,8.83
2022-11-30T07:08:37.217Z,9.33
2022-11-30T07:11:05.836Z,8.63
2022-11-30T07:13:33.754Z,9.43
2022-11-30T07:16:04.468Z,10.33
2022-11-30T07:18:32.846Z,10.40
2022-11-30T07:21:02.971Z,11.07
2022-11-30T07:23:55.602Z,10.00
2022-11-30T07:26:24.471Z,13.83
2022-11-30T07:28:55.483Z,11.40
2022-11-30T07:31:26.279Z,10.63
2022-11-30T07:33:54.219Z,13.57
2022-11-30T07:36:25.371Z,12.10
2022-11-30T07:38:53.343Z,12.10
2022-11-30T07:41:21.103Z,10.70
2022-11-30T07:43:48.958Z,12.20
2022-11-30T07:46:17.703Z,11.33
2022-11-30T07:48:47.275Z,13.30
2022-11-30T07:51:17.098Z,13.13
2022-11-30T07:53:49.943Z,12.43
2022-11-30T07:56:20.566Z,14.67
2022-11-30T07:58:49.149Z,12.30
2022-11-30T08:01:19.639Z,13.23
2022-11-30T08:03:47.528Z,13.97
2022-11-30T08:06:17.196Z,12.97
2022-11-30T08:08:45.966Z,12.17
2022-11-30T08:11:16.847Z,12.67
2022-11-30T08:13:45.209Z,11.20
2022-11-30T08:16:15.167Z,11.73
2022-11-30T08:18:43.656Z,12.40
2022-11-30T08:21:14.117Z,12.40
2022-11-30T08:23:43.593Z,14.00
2022-11-30T08:26:13.302Z,10.87
2022-11-30T08:28:43.255Z,12.10
2022-11-30T08:31:13.516Z,11.30
2022-11-30T08:33:42.115Z,10.77
2022-11-30T08:36:12.052Z,12.67
2022-11-30T08:38:41.071Z,12.20
2022-11-30T08:41:09.716Z,11.90
2022-11-30T08:43:37.580Z,12.20
2022-11-30T08:49:13.041Z,12.60
2022-11-30T08:52:15.507Z,13.10
2022-11-30T08:54:32.088Z,13.67
2022-11-30T08:57:00.049Z,13.17
2022-11-30T08:59:27.789Z,12.57
2022-11-30T09:01:56.921Z,13.47
2022-11-30T09:04:24.822Z,15.10
2022-11-30T09:06:52.696Z,12.70
2022-11-30T09:09:20.574Z,12.80
2022-11-30T09:11:48.347Z,12.13
2022-11-30T09:14:16.145Z,12.50
2022-11-30T09:16:44.018Z,12.93
2022-11-30T09:19:13.191Z,10.80
2022-11-30T09:21:44.239Z,12.07
2022-11-30T09:24:14.932Z,12.60
2022-11-30T09:26:42.689Z,12.00
2022-11-30T09:29:10.506Z,12.13
2022-11-30T09:31:38.394Z,12.13
2022-11-30T09:34:06.249Z,12.60
2022-11-30T09:36:37.140Z,10.80
2022-11-30T09:39:05.071Z,12.63
2022-11-30T09:42:08.079Z,11.00
2022-11-30T09:44:43.694Z,10.77
2022-11-30T09:47:27.694Z,11.10
2022-11-30T09:50:02.107Z,10.70
2022-11-30T09:52:37.545Z,10.90
2022-11-30T09:55:10.367Z,10.27
2022-11-30T09:57:46.856Z,10.37
2022-11-30T10:00:17.721Z,8.90
2022-11-30T10:02:45.974Z,9.77
2022-11-30T10:05:15.452Z,11.87
2022-11-30T10:08:03.171Z,10.80
2022-11-30T10:10:40.012Z,8.43
2022-11-30T10:13:24.409Z,8.77
2022-11-30T10:16:04.777Z,7.90
2022-11-30T10:18:44.440Z,14.23
2022-11-30T10:21:25.028Z,7.93
2022-11-30T10:24:10.568Z,7.97
2022-11-30T10:26:41.674Z,7.90
2022-11-30T10:29:18.050Z,9.87
2022-11-30T10:31:47.382Z,19.33
2022-11-30T10:34:21.541Z,9.43
2022-11-30T10:36:55.448Z,7.63
2022-11-30T10:39:31.274Z,11.53
2022-11-30T10:42:06.013Z,8.30
2022-11-30T10:44:39.761Z,7.30
2022-11-30T10:47:14.625Z,7.40
2022-11-30T10:49:47.302Z,7.30
2022-11-30T10:52:19.655Z,7.50
2022-11-30T10:55:00.503Z,6.40
2022-11-30T10:57:32.811Z,7.73
2022-11-30T11:00:03.609Z,6.77
2022-11-30T11:02:37.478Z,5.57
2022-11-30T11:05:13.772Z,4.30
2022-11-30T11:07:49.135Z,4.57
2022-11-30T11:10:20.184Z,4.10
2022-11-30T11:12:51.080Z,5.53
2022-11-30T11:15:21.744Z,5.03
2022-11-30T11:17:53.031Z,5.87
2022-11-30T11:20:34.135Z,6.30
2022-11-30T11:23:03.745Z,5.37
2022-11-30T11:25:37.640Z,6.83
2022-11-30T11:28:14.947Z,6.90
2022-11-30T11:30:42.997Z,6.80
2022-11-30T11:33:21.788Z,6.70
2022-11-30T11:35:50.878Z,7.47
2022-11-30T11:38:24.094Z,9.10
2022-11-30T11:41:00.119Z,10.07
2022-11-30T11:43:30.418Z,9.47
2022-11-30T11:46:00.903Z,9.80
2022-11-30T11:48:32.903Z,11.00
2022-11-30T11:51:07.586Z,10.17
2022-11-30T11:53:47.428Z,8.67
2022-11-30T11:56:26.239Z,9.03
2022-11-30T11:58:59.683Z,7.87
2022-11-30T12:01:47.163Z,8.30
2022-11-30T12:04:37.247Z,9.10
2022-11-30T12:07:18.090Z,8.53
2022-11-30T12:09:58.122Z,7.70
2022-11-30T12:12:28.369Z,8.53
2022-11-30T12:14:57.372Z,7.57
2022-11-30T12:17:42.623Z,6.90
2022-11-30T12:20:23.556Z,7.40
2022-11-30T12:23:17.946Z,8.30
2022-11-30T12:25:55.882Z,8.17
2022-11-30T12:28:32.516Z,7.30
2022-11-30T12:31:12.229Z,5.47
2022-11-30T12:34:02.244Z,6.03
2022-11-30T12:36:47.312Z,6.50
2022-11-30T12:39:25.735Z,5.80
2022-11-30T12:42:00.147Z,6.20
2022-11-30T12:44:45.367Z,6.00
2022-11-30T12:47:27.390Z,6.67
2022-11-30T12:50:08.770Z,6.77
2022-11-30T12:52:45.212Z,7.00
2022-11-30T12:55:25.692Z,7.60
2022-11-30T12:58:03.108Z,7.53
2022-11-30T13:00:40.774Z,7.07
2022-11-30T13:03:36.266Z,5.93
2022-11-30T13:06:10.181Z,6.17
2022-11-30T13:08:49.404Z,6.63
2022-11-30T13:11:21.200Z,5.60
2022-11-30T13:13:54.445Z,6.77
2022-11-30T13:16:25.788Z,6.97
2022-11-30T13:19:00.217Z,6.80
2022-11-30T13:21:33.669Z,6.20
2022-11-30T13:24:09.777Z,6.80
2022-11-30T13:26:43.867Z,7.40
2022-11-30T13:29:25.199Z,6.07
2022-11-30T13:31:59.695Z,5.73
2022-11-30T13:34:29.012Z,5.93
2022-11-30T13:37:05.599Z,7.70
2022-11-30T13:39:48.941Z,6.90
2022-11-30T13:42:35.858Z,5.50
2022-11-30T13:45:20.319Z,5.60
2022-11-30T13:47:53.320Z,6.60
2022-11-30T13:50:26.998Z,6.90
2022-11-30T13:53:26.679Z,6.43
2022-11-30T13:56:00.691Z,6.73
2022-11-30T13:58:29.808Z,6.10
2022-11-30T14:01:03.307Z,6.97
2022-11-30T14:06:49.078Z,7.20
2022-11-30T14:09:18.072Z,7.10
2022-11-30T14:11:46.278Z,7.50
2022-11-30T14:14:46.873Z,8.23
2022-11-30T14:17:24.848Z,6.27
2022-11-30T14:19:58.603Z,7.10
2022-11-30T14:22:28.131Z,6.37
2022-11-30T14:24:56.509Z,7.87
2022-11-30T14:27:29.963Z,7.20
2022-11-30T14:30:02.877Z,8.93
2022-11-30T14:32:36.124Z,10.03
2022-11-30T14:35:10.588Z,10.03
2022-11-30T14:37:44.464Z,9.07
2022-11-30T14:40:19.086Z,11.43
2022-11-30T14:42:49.911Z,10.40
2022-11-30T14:45:22.442Z,10.93
2022-11-30T14:47:53.443Z,10.87
2022-11-30T14:50:26.374Z,9.80
2022-11-30T14:53:05.873Z,11.43
2022-11-30T14:55:39.386Z,11.50
2022-11-30T14:58:19.055Z,9.37
2022-11-30T15:00:48.351Z,10.80
2022-11-30T15:03:24.401Z,10.87
2022-11-30T15:05:56.191Z,11.40
2022-11-30T15:08:24.841Z,12.37
2022-11-30T15:10:52.649Z,10.50
2022-11-30T15:13:21.343Z,10.80
2022-11-30T15:15:54.587Z,9.80
2022-11-30T15:18:24.247Z,11.00
2022-11-30T15:20:59.899Z,10.50
2022-11-30T15:23:27.892Z,12.40
2022-11-30T15:25:59.245Z,11.07
2022-11-30T15:28:31.755Z,11.77
2022-11-30T15:31:03.705Z,11.53
2022-11-30T15:33:37.950Z,10.40
2022-11-30T15:36:33.078Z,11.27
2022-11-30T15:38:55.990Z,11.27
2022-11-30T15:41:25.522Z,12.17
2022-11-30T15:43:56.639Z,11.57
2022-11-30T15:46:34.785Z,10.90
2022-11-30T15:49:17.235Z,12.03
2022-11-30T15:51:51.025Z,10.27
2022-11-30T15:54:49.452Z,13.53
2022-11-30T15:57:18.225Z,13.73
2022-11-30T16:00:03.829Z,10.97
2022-11-30T16:02:34.693Z,11.37
2022-11-30T16:05:22.182Z,10.57
2022-11-30T16:07:54.529Z,10.80
2022-11-30T16:10:24.866Z,9.77
2022-11-30T16:12:54.733Z,13.00
2022-11-30T16:15:24.940Z,10.67
2022-11-30T16:17:54.512Z,12.47
2022-11-30T16:20:22.699Z,10.20
2022-11-30T16:22:51.946Z,10.00
2022-11-30T16:25:21.684Z,10.20
2022-11-30T16:27:50.204Z,10.70
2022-11-30T16:30:20.801Z,12.03
2022-11-30T16:32:49.109Z,12.50
2022-11-30T16:35:21.621Z,10.53
2022-11-30T16:37:51.267Z,10.63
2022-11-30T16:40:19.547Z,10.77
2022-11-30T16:42:49.262Z,11.53
2022-11-30T16:45:20.892Z,9.17
2022-11-30T16:47:49.104Z,9.43
2022-11-30T16:50:17.386Z,10.33
2022-11-30T16:52:45.455Z,11.07
2022-11-30T16:55:16.518Z,11.03
2022-11-30T16:57:44.593Z,10.63
2022-11-30T17:00:15.821Z,11.87
2022-11-30T17:02:46.597Z,10.83
2022-11-30T17:05:16.054Z,10.27
2022-11-30T17:07:43.992Z,10.70
2022-11-30T17:10:13.426Z,10.20
2022-11-30T17:12:42.689Z,10.10
2022-11-30T17:15:15.388Z,11.37
2022-11-30T17:17:43.312Z,9.83
2022-11-30T17:20:12.912Z,9.57
2022-11-30T17:22:41.233Z,10.20
2022-11-30T17:25:13.258Z,10.90
2022-11-30T17:27:42.496Z,10.10
2022-11-30T17:30:10.988Z,9.23
2022-11-30T17:32:38.789Z,9.77
2022-11-30T17:35:08.089Z,9.93
2022-11-30T17:37:36.407Z,9.37
2022-11-30T17:40:05.048Z,9.83
2022-11-30T17:42:32.901Z,10.00
2022-11-30T17:45:02.025Z,9.90
2022-11-30T17:47:29.816Z,9.20
2022-11-30T17:49:58.407Z,10.80
2022-11-30T17:52:26.465Z,9.60
2022-11-30T17:54:54.231Z,10.20
2022-11-30T17:57:21.995Z,11.00
2022-11-30T17:59:49.798Z,10.57
2022-11-30T18:02:18.984Z,12.07
2022-11-30T18:04:47.202Z,11.60
2022-11-30T18:07:16.439Z,11.40
2022-11-30T18:09:44.185Z,8.57
2022-11-30T18:12:12.508Z,10.10
2022-11-30T18:14:40.279Z,8.93
2022-11-30T18:17:08.256Z,11.57
2022-11-30T18:19:37.652Z,11.10
2022-11-30T18:22:05.470Z,12.57
2022-11-30T18:24:33.407Z,12.50
2022-11-30T18:27:01.210Z,9.10
2022-11-30T18:29:29.332Z,12.00
2022-11-30T18:31:57.124Z,11.07
2022-11-30T18:34:24.920Z,10.43
2022-11-30T18:36:54.000Z,10.47
2022-11-30T18:39:21.928Z,9.57
2022-11-30T18:41:49.875Z,11.40
2022-11-30T18:44:17.732Z,12.07
2022-11-30T18:46:45.804Z,11.60
2022-11-30T18:49:13.609Z,11.60
2022-11-30T18:51:41.337Z,11.50
2022-11-30T18:54:11.474Z,10.90
2022-11-30T18:56:40.140Z,11.60
2022-11-30T18:59:10.866Z,13.93
2022-11-30T19:01:38.741Z,11.60
2022-11-30T19:04:08.864Z,11.30
2022-11-30T19:06:38.017Z,11.70
2022-11-30T19:09:08.397Z,11.43
2022-11-30T19:11:38.702Z,12.60
2022-11-30T19:14:07.209Z,12.40
2022-11-30T19:16:35.890Z,11.80
2022-11-30T19:19:06.342Z,13.10
2022-11-30T19:21:34.768Z,10.37
2022-11-30T19:24:02.625Z,11.57
2022-11-30T19:26:30.868Z,11.40
2022-11-30T19:29:00.124Z,12.33
2022-11-30T19:31:28.509Z,11.53
2022-11-30T19:33:57.201Z,12.70
2022-11-30T19:36:27.142Z,11.27
2022-11-30T19:38:55.485Z,10.70
2022-11-30T19:41:23.614Z,12.00
2022-11-30T19:44:02.488Z,11.10
2022-11-30T19:46:34.384Z,11.70
2022-11-30T19:49:02.946Z,11.53
2022-11-30T19:51:31.885Z,12.67
2022-11-30T19:54:00.232Z,11.43
2022-11-30T19:56:29.899Z,11.77
2022-11-30T19:59:04.019Z,11.83
2022-11-30T20:01:34.049Z,10.70
2022-11-30T20:04:02.025Z,12.13
2022-11-30T20:06:31.556Z,11.13
2022-11-30T20:08:59.525Z,11.83
2022-11-30T20:11:27.365Z,11.93
2022-11-30T20:13:55.238Z,12.10
2022-11-30T20:16:23.908Z,13.80
2022-11-30T20:18:55.390Z,13.93
2022-11-30T20:21:25.193Z,12.07
2022-11-30T20:23:54.606Z,14.00
2022-11-30T20:26:24.603Z,13.40
2022-11-30T20:28:53.163Z,12.97
2022-11-30T20:31:22.879Z,11.70
2022-11-30T20:33:51.085Z,13.47
2022-11-30T20:36:21.795Z,11.73
2022-11-30T20:38:49.804Z,12.07
2022-11-30T20:41:18.996Z,12.30
2022-11-30T20:43:47.630Z,12.90
2022-11-30T20:46:17.449Z,13.53
2022-11-30T20:48:45.639Z,13.90
2022-11-30T20:51:30.705Z,12.67
2022-11-30T20:54:02.253Z,13.47
2022-11-30T20:56:30.166Z,14.07
2022-11-30T20:59:02.116Z,13.03
2022-11-30T21:01:30.055Z,14.27
2022-11-30T21:03:59.442Z,11.53
2022-11-30T21:06:27.664Z,13.00
2022-11-30T21:08:55.775Z,14.17
2022-11-30T21:11:25.447Z,11.90
2022-11-30T21:13:53.815Z,13.10
2022-11-30T21:16:27.767Z,12.87
2022-11-30T21:18:57.980Z,13.40
2022-11-30T21:21:28.291Z,13.03
2022-11-30T21:24:04.556Z,12.50
2022-11-30T21:26:35.005Z,13.30
2022-11-30T21:29:04.973Z,13.30
2022-11-30T21:31:33.030Z,13.80
2022-11-30T21:34:02.876Z,12.23
2022-11-30T21:36:31.128Z,11.97
2022-11-30T21:39:05.718Z,15.20
2022-11-30T21:41:37.301Z,13.40
2022-11-30T21:44:05.496Z,13.60
2022-11-30T21:46:34.063Z,12.00
2022-11-30T21:49:02.295Z,14.80
2022-11-30T21:51:32.044Z,14.13
2022-11-30T21:54:04.243Z,13.07
2022-11-30T21:56:33.564Z,14.13
2022-11-30T21:59:04.526Z,14.20
2022-11-30T22:01:33.968Z,13.90
2022-11-30T22:04:03.652Z,14.00
2022-11-30T22:06:32.923Z,13.20
2022-11-30T22:09:07.511Z,13.60
2022-11-30T22:11:38.880Z,13.93
2022-11-30T22:14:10.859Z,13.47
2022-11-30T22:16:39.032Z,12.93
2022-11-30T22:19:07.715Z,15.03
2022-11-30T22:21:36.467Z,13.90
2022-11-30T22:24:06.149Z,13.67
2022-11-30T22:26:35.643Z,14.47
2022-11-30T22:29:05.258Z,14.30
2022-11-30T22:31:36.485Z,14.40
2022-11-30T22:34:04.587Z,14.97
2022-11-30T22:36:34.512Z,13.40
2022-11-30T22:39:04.915Z,15.30
2022-11-30T22:41:33.333Z,14.27
2022-11-30T22:44:01.123Z,15.27
2022-11-30T22:46:30.628Z,14.90
2022-11-30T22:49:01.930Z,13.47
2022-11-30T22:51:32.118Z,14.23
2022-11-30T22:54:00.550Z,13.30
2022-11-30T22:56:30.201Z,14.70
2022-11-30T23:01:42.874Z,15.43
2022-11-30T23:04:14.150Z,15.13
2022-11-30T23:06:43.107Z,15.70
2022-11-30T23:09:13.836Z,13.73
2022-11-30T23:11:41.697Z,14.50
2022-11-30T23:14:09.815Z,14.50
2022-11-30T23:16:38.302Z,14.63
2022-11-30T23:19:07.251Z,15.87
2022-11-30T23:21:41.393Z,14.03
2022-11-30T23:24:13.450Z,15.23
2022-11-30T23:26:42.011Z,16.10
2022-11-30T23:29:13.109Z,13.80
2022-11-30T23:31:42.198Z,15.63
2022-11-30T23:34:13.707Z,14.53
2022-11-30T23:36:43.301Z,14.40
2022-11-30T23:39:13.306Z,16.20
2022-11-30T23:41:41.867Z,15.80
2022-11-30T23:44:10.910Z,14.37
2022-11-30T23:46:38.992Z,14.33
2022-11-30T23:49:08.009Z,15.87
2022-11-30T23:51:36.029Z,13.90
2022-11-30T23:54:05.460Z,15.37
2022-11-30T23:56:33.351Z,15.77
2022-11-30T23:59:01.266Z,15.37
